Time;durP1;ratioP1;P1;durP2;ratioP2;P2;SDS_P1;SDS_P2;PMS_P1;PMS_P2;Temp;Humidity;BMP_temperature;BMP_pressure;BME280_temperature;BME280_humidity;BME280_pressure;Samples;Min_cycle;Max_cycle;Signal;HPM_P1;HPM_P2
2024/04/16 00:01:26;;;;;;;4.00;0.70;;;4.70;99.90;;;;;;5392084;26;20520;-82
2024/04/16 00:03:52;;;;;;;2.13;0.80;;;4.80;99.90;;;;;;5406248;26;20486;-82
2024/04/16 00:06:18;;;;;;;6.47;0.90;;;4.80;99.90;;;;;;5392507;26;20007;-81
2024/04/16 00:08:48;;;;;;;3.00;0.88;;;4.80;99.90;;;;;;5405550;26;20405;-82
2024/04/16 00:11:13;;;;;;;4.22;1.13;;;4.80;99.90;;;;;;5414535;26;20018;-82
2024/04/16 00:13:39;;;;;;;2.45;1.45;;;4.80;99.90;;;;;;5399558;26;20008;-82
2024/04/16 00:16:05;;;;;;;2.75;0.80;;;5.00;99.90;;;;;;5400238;26;20022;-81
2024/04/16 00:18:31;;;;;;;3.20;0.70;;;4.80;99.90;;;;;;5397172;26;20455;-82
2024/04/16 00:20:59;;;;;;;1.10;0.57;;;4.90;99.90;;;;;;5400689;26;20019;-82
2024/04/16 00:23:27;;;;;;;1.52;0.50;;;5.20;99.90;;;;;;5411684;26;20012;-82
2024/04/16 00:25:54;;;;;;;2.30;0.55;;;4.80;99.90;;;;;;5409877;26;20057;-82
2024/04/16 00:28:19;;;;;;;0.68;0.47;;;4.70;99.90;;;;;;5397083;26;20008;-81
2024/04/16 00:30:45;;;;;;;3.88;0.70;;;4.70;99.90;;;;;;5396994;26;20008;-81
2024/04/16 00:33:11;;;;;;;0.75;0.50;;;4.70;99.90;;;;;;5407941;26;20015;-81
2024/04/16 00:35:36;;;;;;;1.15;0.40;;;4.70;99.90;;;;;;5398752;26;20015;-81
2024/04/16 00:38:03;;;;;;;1.05;0.50;;;4.70;99.90;;;;;;5403366;26;20067;-80
2024/04/16 00:40:28;;;;;;;0.95;0.50;;;4.70;99.90;;;;;;5408317;26;20268;-81
2024/04/16 00:42:54;;;;;;;0.80;0.47;;;4.70;99.90;;;;;;5400432;26;20008;-79
2024/04/16 00:45:20;;;;;;;1.33;0.70;;;4.70;99.90;;;;;;5406940;26;20009;-79
2024/04/16 00:47:46;;;;;;;2.22;0.52;;;4.70;99.90;;;;;;5401318;26;20019;-80
2024/04/16 00:50:13;;;;;;;1.30;0.60;;;4.70;99.90;;;;;;5396813;26;20501;-78
2024/04/16 00:52:40;;;;;;;1.27;0.52;;;4.70;99.90;;;;;;5400411;26;20003;-80
2024/04/16 00:55:07;;;;;;;1.15;0.60;;;4.70;99.90;;;;;;5390155;26;20008;-80
2024/04/16 00:57:34;;;;;;;2.33;0.80;;;4.60;99.90;;;;;;5395542;26;20008;-81
2024/04/16 00:59:59;;;;;;;2.60;0.90;;;4.60;99.90;;;;;;5389809;26;20016;-81
2024/04/16 01:02:25;;;;;;;1.27;0.60;;;4.60;99.90;;;;;;5393559;26;20015;-80
2024/04/16 01:04:50;;;;;;;2.15;0.70;;;4.50;99.90;;;;;;5400975;26;20010;-81
2024/04/16 01:07:17;;;;;;;1.02;0.52;;;4.50;99.90;;;;;;5405991;26;20014;-81
2024/04/16 01:09:42;;;;;;;3.25;0.70;;;4.50;99.90;;;;;;5409517;26;20340;-80
2024/04/16 01:12:08;;;;;;;5.97;0.95;;;4.50;99.90;;;;;;5399879;26;20023;-81
2024/04/16 01:14:34;;;;;;;2.47;0.80;;;4.50;99.90;;;;;;5402422;26;20487;-83
2024/04/16 01:17:01;;;;;;;3.72;0.75;;;4.50;99.90;;;;;;5402972;26;20008;-80
2024/04/16 01:19:26;;;;;;;2.55;0.70;;;4.50;99.90;;;;;;5402846;26;20011;-81
2024/04/16 01:21:52;;;;;;;5.57;1.00;;;4.50;99.90;;;;;;5391376;26;20026;-81
2024/04/16 01:24:17;;;;;;;1.13;0.60;;;4.40;99.90;;;;;;5407894;26;20015;-81
2024/04/16 01:26:44;;;;;;;3.55;1.02;;;4.60;99.90;;;;;;5396153;26;20001;-82
2024/04/16 01:29:09;;;;;;;3.00;0.70;;;4.40;99.90;;;;;;5398039;26;20047;-81
2024/04/16 01:31:35;;;;;;;4.38;0.90;;;4.40;99.90;;;;;;5397769;26;20017;-80
2024/04/16 01:34:01;;;;;;;1.95;0.60;;;4.40;99.90;;;;;;5390223;26;20023;-81
2024/04/16 01:36:26;;;;;;;7.05;0.90;;;4.30;99.90;;;;;;5405675;26;20015;-82
2024/04/16 01:38:52;;;;;;;4.70;0.90;;;4.30;99.90;;;;;;5404255;26;20043;-80
2024/04/16 01:41:17;;;;;;;1.00;0.60;;;4.30;99.90;;;;;;5398856;26;20019;-81
2024/04/16 01:43:43;;;;;;;2.05;0.90;;;4.30;99.90;;;;;;5402905;26;20011;-81
2024/04/16 01:46:09;;;;;;;2.60;0.70;;;4.30;99.90;;;;;;5391720;26;20036;-80
2024/04/16 01:48:35;;;;;;;2.92;0.90;;;4.30;99.90;;;;;;5402878;26;20035;-82
2024/04/16 01:51:01;;;;;;;1.80;0.80;;;4.30;99.90;;;;;;5401432;26;20016;-82
2024/04/16 01:53:27;;;;;;;1.75;0.70;;;4.30;99.90;;;;;;5400294;26;20448;-80
2024/04/16 01:55:52;;;;;;;3.00;0.73;;;4.30;99.90;;;;;;5397986;26;20008;-81
2024/04/16 01:58:18;;;;;;;2.55;0.88;;;4.30;99.90;;;;;;5406365;26;20026;-79
2024/04/16 02:00:44;;;;;;;5.28;1.02;;;4.40;99.90;;;;;;5403356;26;20003;-78
2024/04/16 02:03:10;;;;;;;2.55;0.98;;;4.40;99.90;;;;;;5389317;26;20019;-80
2024/04/16 02:05:40;;;;;;;3.15;0.93;;;4.40;99.90;;;;;;5412100;26;20011;-79
2024/04/16 02:08:23;;;;;;;3.90;1.10;;;4.40;99.90;;;;;;5387367;26;20359;-79
2024/04/16 02:10:57;;;;;;;3.30;1.00;;;4.40;99.90;;;;;;5396713;26;20007;-80
2024/04/16 02:13:26;;;;;;;;;;;4.50;99.90;;;;;;5406173;26;20007;-80
2024/04/16 02:15:52;;;;;;;4.03;1.17;;;4.50;99.90;;;;;;5403809;26;19925;-81
2024/04/16 02:18:18;;;;;;;5.07;1.08;;;4.50;99.90;;;;;;5395078;26;20451;-80
2024/04/16 02:20:44;;;;;;;2.03;1.15;;;4.50;99.90;;;;;;5402830;26;20042;-80
2024/04/16 02:23:10;;;;;;;3.17;1.15;;;4.50;99.90;;;;;;5396129;26;20343;-81
2024/04/16 02:25:46;;;;;;;3.42;1.10;;;4.50;99.90;;;;;;5393187;26;20617;-81
2024/04/16 02:28:13;;;;;;;4.15;1.00;;;5.60;99.90;;;;;;5393669;26;20018;-80
2024/04/16 02:30:38;;;;;;;5.97;1.35;;;4.50;99.90;;;;;;5401486;26;20020;-80
2024/04/16 02:33:04;;;;;;;6.20;1.17;;;4.40;99.90;;;;;;5385887;26;20004;-79
2024/04/16 02:35:33;;;;;;;4.45;1.10;;;4.40;99.90;;;;;;5399956;26;20020;-80
2024/04/16 02:37:58;;;;;;;5.15;1.20;;;4.40;99.90;;;;;;5403688;26;20564;-80
2024/04/16 02:40:24;;;;;;;3.42;0.90;;;4.40;99.90;;;;;;5400422;26;20008;-80
2024/04/16 02:42:50;;;;;;;2.97;1.17;;;4.40;99.90;;;;;;5392919;26;20011;-79
2024/04/16 02:45:35;;;;;;;3.95;1.23;;;4.40;99.90;;;;;;5381212;26;20004;-79
2024/04/16 02:48:01;;;;;;;5.20;1.23;;;4.40;99.90;;;;;;5389243;26;20050;-80
2024/04/16 02:50:27;;;;;;;3.97;1.10;;;4.40;99.90;;;;;;5398542;26;20018;-82
2024/04/16 02:52:52;;;;;;;3.88;1.75;;;4.40;99.90;;;;;;5394126;26;20023;-79
2024/04/16 02:55:21;;;;;;;5.38;1.50;;;4.40;99.90;;;;;;5394384;26;20916;-80
2024/04/16 02:57:47;;;;;;;7.30;1.83;;;4.50;99.90;;;;;;5379830;26;20233;-80
2024/04/16 03:00:12;;;;;;;4.85;1.00;;;4.50;99.90;;;;;;5391205;26;20008;-81
2024/04/16 03:02:39;;;;;;;4.75;1.00;;;4.50;99.90;;;;;;5397686;26;20444;-81
2024/04/16 03:05:05;;;;;;;5.40;1.42;;;4.50;99.90;;;;;;5397014;26;20081;-82
2024/04/16 03:07:31;;;;;;;5.78;1.40;;;4.50;99.90;;;;;;5387388;26;20016;-80
2024/04/16 03:09:56;;;;;;;3.80;1.10;;;4.60;99.90;;;;;;5393917;26;20014;-82
2024/04/16 03:12:22;;;;;;;8.13;1.60;;;4.60;99.90;;;;;;5397226;26;20003;-80
2024/04/16 03:14:52;;;;;;;5.40;1.15;;;4.60;99.90;;;;;;5388673;26;20008;-79
2024/04/16 03:17:17;;;;;;;4.82;1.27;;;4.70;99.90;;;;;;5386060;26;20004;-80
2024/04/16 03:19:43;;;;;;;5.28;1.38;;;4.70;99.90;;;;;;5388293;26;20030;-81
2024/04/16 03:22:09;;;;;;;9.00;1.63;;;4.80;99.90;;;;;;5397516;26;20020;-78
2024/04/16 03:24:35;;;;;;;8.25;2.13;;;4.80;99.90;;;;;;5389776;26;20018;-78
2024/04/16 03:27:01;;;;;;;8.15;1.90;;;4.90;99.90;;;;;;5396189;26;20008;-79
2024/04/16 03:29:47;;;;;;;6.95;1.90;;;4.90;99.90;;;;;;5392285;26;20012;-79
2024/04/16 03:32:13;;;;;;;4.95;1.70;;;4.90;99.90;;;;;;5394068;26;20076;-77
2024/04/16 03:34:43;;;;;;;8.27;1.95;;;5.00;99.90;;;;;;5391299;26;20008;-77
2024/04/16 03:37:09;;;;;;;6.35;1.42;;;5.00;99.90;;;;;;5390812;26;20092;-78
2024/04/16 03:39:34;;;;;;;7.22;1.95;;;5.00;99.90;;;;;;5388126;26;20019;-78
2024/04/16 03:42:00;;;;;;;8.90;1.92;;;5.00;99.90;;;;;;5390453;26;20008;-79
2024/04/16 03:44:26;;;;;;;10.38;2.03;;;5.00;99.90;;;;;;5394002;26;20086;-81
2024/04/16 03:46:51;;;;;;;11.18;1.75;;;5.10;99.90;;;;;;5396112;26;20016;-78
2024/04/16 03:49:17;;;;;;;6.45;2.10;;;5.10;99.90;;;;;;5377823;26;21771;-79
2024/04/16 03:51:43;;;;;;;7.10;1.80;;;5.10;99.90;;;;;;5392641;26;20452;-77
2024/04/16 03:54:09;;;;;;;8.07;1.73;;;5.10;99.90;;;;;;5401154;26;20035;-78
2024/04/16 03:56:35;;;;;;;5.70;1.70;;;5.10;99.90;;;;;;5392392;26;20339;-79
2024/04/16 03:59:26;;;;;;;6.47;1.65;;;5.10;99.90;;;;;;5382864;26;20008;-80
2024/04/16 04:01:54;;;;;;;4.45;1.55;;;5.10;99.90;;;;;;5401551;26;20019;-80
2024/04/16 04:04:20;;;;;;;8.50;1.48;;;5.10;99.90;;;;;;5396008;26;20006;-81
2024/04/16 04:06:47;;;;;;;8.95;1.48;;;5.10;99.90;;;;;;5389812;26;20023;-80
2024/04/16 04:09:12;;;;;;;3.78;1.40;;;5.00;99.90;;;;;;5386977;26;20019;-78
2024/04/16 04:11:38;;;;;;;3.80;1.15;;;5.00;99.90;;;;;;5391673;26;20026;-80
2024/04/16 04:14:03;;;;;;;3.30;1.20;;;5.00;99.90;;;;;;5401118;26;20008;-81
2024/04/16 04:16:29;;;;;;;4.28;1.48;;;5.00;99.90;;;;;;5396572;26;20351;-80
2024/04/16 04:18:58;;;;;;;6.35;1.35;;;5.00;99.90;;;;;;5403712;26;20042;-78
2024/04/16 04:21:24;;;;;;;7.47;1.67;;;5.00;99.90;;;;;;5394543;26;20016;-80
2024/04/16 04:23:50;;;;;;;6.03;1.40;;;5.00;99.90;;;;;;5395967;26;20008;-78
2024/04/16 04:26:16;;;;;;;5.80;1.90;;;5.10;99.90;;;;;;5391424;26;20011;-79
2024/04/16 04:28:41;;;;;;;7.80;1.75;;;5.10;99.90;;;;;;5390415;26;20008;-79
2024/04/16 04:31:18;;;;;;;9.82;1.90;;;5.10;99.90;;;;;;5395355;26;20080;-78
2024/04/16 04:33:45;;;;;;;10.70;2.08;;;5.10;99.90;;;;;;5398674;26;20004;-79
2024/04/16 04:36:12;;;;;;;5.65;1.42;;;5.10;99.90;;;;;;5398535;26;20474;-79
2024/04/16 04:38:39;;;;;;;10.43;2.08;;;5.10;99.90;;;;;;5386290;26;20008;-79
2024/04/16 04:41:05;;;;;;;7.25;2.10;;;5.10;99.90;;;;;;5388497;26;20008;-79
2024/04/16 04:43:31;;;;;;;6.47;1.70;;;5.10;99.90;;;;;;5394058;26;20019;-79
2024/04/16 04:45:56;;;;;;;7.00;2.00;;;5.10;99.90;;;;;;5399377;26;20008;-80
2024/04/16 04:48:23;;;;;;;8.43;1.95;;;5.10;99.90;;;;;;5394058;26;20019;-80
2024/04/16 04:50:49;;;;;;;8.52;1.98;;;5.10;99.90;;;;;;5393647;26;20081;-79
2024/04/16 04:53:15;;;;;;;9.48;2.05;;;5.10;99.90;;;;;;5387175;26;20016;-79
2024/04/16 04:55:40;;;;;;;7.55;2.03;;;5.10;99.90;;;;;;5388984;26;20005;-81
2024/04/16 04:58:06;;;;;;;8.45;1.70;;;5.10;99.90;;;;;;5408000;26;20032;-81
2024/04/16 05:00:32;;;;;;;9.32;2.10;;;5.10;99.90;;;;;;5393347;26;20039;-80
2024/04/16 05:02:58;;;;;;;13.90;2.33;;;5.20;99.90;;;;;;5394373;26;20016;-81
2024/04/16 05:05:24;;;;;;;6.95;1.45;;;5.20;99.90;;;;;;5392156;26;20015;-78
2024/04/16 05:07:49;;;;;;;7.72;1.95;;;5.20;99.90;;;;;;5392761;26;20008;-79
2024/04/16 05:10:15;;;;;;;9.30;1.67;;;5.20;99.90;;;;;;5401352;26;20395;-80
2024/04/16 05:12:41;;;;;;;8.20;1.90;;;5.30;99.90;;;;;;5407804;26;20036;-80
2024/04/16 05:15:08;;;;;;;5.15;1.70;;;5.20;99.90;;;;;;5396652;26;20008;-81
2024/04/16 05:17:33;;;;;;;7.07;1.40;;;5.20;99.90;;;;;;5397044;26;20022;-81
2024/04/16 05:19:59;;;;;;;5.25;1.70;;;5.20;99.90;;;;;;5401628;26;20007;-81
2024/04/16 05:22:25;;;;;;;2.92;1.63;;;5.20;99.90;;;;;;5395847;26;20007;-82
2024/04/16 05:24:50;;;;;;;5.05;0.90;;;5.20;99.90;;;;;;5397481;26;20467;-80
2024/04/16 05:27:16;;;;;;;6.35;1.30;;;5.10;99.90;;;;;;5401557;26;19999;-80
2024/04/16 05:29:41;;;;;;;4.03;1.10;;;5.10;99.90;;;;;;5395421;26;20485;-80
2024/04/16 05:32:11;;;;;;;5.18;1.27;;;5.10;99.90;;;;;;5414530;26;20014;-83
2024/04/16 05:34:37;;;;;;;4.28;1.55;;;4.90;99.90;;;;;;5397255;26;20008;-80
2024/04/16 05:37:03;;;;;;;3.63;0.77;;;5.00;99.90;;;;;;5392685;26;20023;-80
2024/04/16 05:39:29;;;;;;;1.25;0.70;;;4.90;99.90;;;;;;5383797;26;20023;-80
2024/04/16 05:41:55;;;;;;;3.20;1.00;;;4.80;99.90;;;;;;5400122;26;20008;-81
2024/04/16 05:44:20;;;;;;;2.22;0.75;;;4.80;99.90;;;;;;5389937;26;20062;-83
2024/04/16 05:46:47;;;;;;;2.85;1.35;;;4.80;99.90;;;;;;5390472;26;20016;-82
2024/04/16 05:49:14;;;;;;;5.55;1.65;;;4.80;99.90;;;;;;5410899;26;20055;-79
2024/04/16 05:51:40;;;;;;;4.80;1.40;;;5.40;99.90;;;;;;5399086;26;20066;-80
2024/04/16 05:54:06;;;;;;;2.90;1.08;;;4.80;99.90;;;;;;5395738;26;20011;-81
2024/04/16 05:56:33;;;;;;;3.30;1.10;;;4.70;99.90;;;;;;5397483;26;20081;-81
2024/04/16 05:58:59;;;;;;;1.20;0.60;;;4.70;99.90;;;;;;5395934;26;20007;-78
2024/04/16 06:01:24;;;;;;;4.30;1.02;;;4.70;99.90;;;;;;5383545;26;20360;-78
2024/04/16 06:03:50;;;;;;;2.85;0.80;;;4.70;99.90;;;;;;5384865;26;20009;-79
2024/04/16 06:06:16;;;;;;;2.70;0.70;;;4.70;99.90;;;;;;5393143;26;20004;-78
2024/04/16 06:08:42;;;;;;;3.97;0.93;;;4.60;99.90;;;;;;5398727;26;20024;-79
2024/04/16 06:11:08;;;;;;;4.07;0.80;;;4.70;99.90;;;;;;5389292;26;20091;-79
2024/04/16 06:13:34;;;;;;;3.55;1.02;;;4.60;99.90;;;;;;5396031;26;20028;-82
2024/04/16 06:16:00;;;;;;;1.88;0.80;;;4.60;99.90;;;;;;5389141;26;20082;-78
2024/04/16 06:18:27;;;;;;;3.08;0.85;;;4.60;99.90;;;;;;5400564;26;20007;-77
2024/04/16 06:20:53;;;;;;;2.33;1.00;;;4.60;99.90;;;;;;5396629;26;20007;-78
2024/04/16 06:23:20;;;;;;;3.80;1.05;;;4.60;99.90;;;;;;5396527;26;20009;-80
2024/04/16 06:25:45;;;;;;;2.22;1.23;;;4.60;99.90;;;;;;5392982;26;20008;-78
2024/04/16 06:28:11;;;;;;;3.28;1.30;;;4.60;99.90;;;;;;5383663;26;20023;-77
2024/04/16 06:30:36;;;;;;;2.72;1.05;;;4.60;99.90;;;;;;5390563;26;20004;-80
2024/04/16 06:33:03;;;;;;;2.40;1.10;;;4.60;99.90;;;;;;5388655;26;20012;-79
2024/04/16 06:35:29;;;;;;;3.53;1.00;;;4.60;99.90;;;;;;5392613;26;20019;-81
2024/04/16 06:37:54;;;;;;;2.97;1.35;;;4.90;99.90;;;;;;5383509;26;20426;-79
2024/04/16 06:40:21;;;;;;;5.50;1.40;;;4.70;99.90;;;;;;5383183;26;20019;-78
2024/04/16 06:42:49;;;;;;;2.35;0.90;;;4.80;99.90;;;;;;5393696;26;20075;-78
2024/04/16 06:45:15;;;;;;;2.35;0.90;;;4.80;99.90;;;;;;5378651;26;20019;-80
2024/04/16 06:47:40;;;;;;;3.22;1.25;;;4.80;99.90;;;;;;5403510;26;20524;-77
2024/04/16 06:50:06;;;;;;;2.03;1.00;;;5.00;99.90;;;;;;5401450;26;20354;-80
2024/04/16 06:52:32;;;;;;;3.75;1.20;;;5.20;99.90;;;;;;5384222;26;20447;-77
2024/04/16 06:54:58;;;;;;;2.90;1.10;;;5.40;99.90;;;;;;5398640;26;20008;-78
2024/04/16 06:57:25;;;;;;;3.13;1.23;;;5.60;99.90;;;;;;5399391;26;20581;-78
2024/04/16 06:59:51;;;;;;;2.30;1.10;;;5.60;99.90;;;;;;5428012;26;20015;-78
2024/04/16 07:02:17;;;;;;;2.70;1.00;;;5.80;99.90;;;;;;5401407;26;20352;-78
2024/04/16 07:04:42;;;;;;;3.45;1.10;;;5.90;99.90;;;;;;5400866;26;20059;-78
2024/04/16 07:07:08;;;;;;;2.03;1.00;;;5.90;99.90;;;;;;5392346;26;20078;-80
2024/04/16 07:09:34;;;;;;;2.25;1.00;;;5.90;99.90;;;;;;5405770;26;20019;-79
2024/04/16 07:11:59;;;;;;;4.00;1.10;;;5.80;99.90;;;;;;5394385;26;20513;-78
2024/04/16 07:14:25;;;;;;;3.40;1.10;;;5.80;99.90;;;;;;5402537;26;20358;-78
2024/04/16 07:16:50;;;;;;;2.05;1.00;;;5.70;99.90;;;;;;5396791;26;20008;-78
2024/04/16 07:19:16;;;;;;;2.03;1.23;;;5.80;99.90;;;;;;5385196;26;20019;-80
2024/04/16 07:21:42;;;;;;;2.30;0.82;;;5.80;99.90;;;;;;5398253;26;20022;-78
2024/04/16 07:24:07;;;;;;;2.15;0.98;;;5.80;99.90;;;;;;5390440;26;20082;-79
2024/04/16 07:26:33;;;;;;;2.08;1.00;;;5.90;99.90;;;;;;5390979;26;20016;-78
2024/04/16 07:28:59;;;;;;;3.53;0.93;;;5.90;99.90;;;;;;5392685;26;20015;-78
2024/04/16 07:31:24;;;;;;;4.95;1.10;;;6.00;99.90;;;;;;5393428;26;20015;-80
2024/04/16 07:33:51;;;;;;;3.05;1.10;;;6.10;99.90;;;;;;5395403;26;20020;-80
2024/04/16 07:36:16;;;;;;;4.10;1.45;;;6.10;99.90;;;;;;5392293;26;20019;-79
2024/04/16 07:38:42;;;;;;;2.03;1.00;;;6.10;99.90;;;;;;5392133;26;20027;-79
2024/04/16 07:41:08;;;;;;;1.27;0.70;;;6.10;99.90;;;;;;5392258;26;20009;-80
2024/04/16 07:43:35;;;;;;;1.83;0.70;;;6.10;99.90;;;;;;5381978;26;20371;-79
2024/04/16 07:46:01;;;;;;;2.22;0.90;;;6.10;99.90;;;;;;5401394;26;20019;-78
2024/04/16 07:48:27;;;;;;;1.23;0.60;;;6.10;99.90;;;;;;5391845;26;20088;-79
2024/04/16 07:50:53;;;;;;;1.27;0.70;;;6.10;99.90;;;;;;5391991;26;20016;-78
2024/04/16 07:53:18;;;;;;;1.90;0.70;;;6.10;99.90;;;;;;5398448;26;20008;-77
2024/04/16 07:55:44;;;;;;;1.20;0.65;;;6.20;99.90;;;;;;5386452;26;20007;-79
2024/04/16 07:58:10;;;;;;;1.02;0.60;;;6.20;99.90;;;;;;5392257;26;20085;-79
2024/04/16 08:00:37;;;;;;;1.08;0.60;;;6.30;99.90;;;;;;5396526;26;20008;-79
2024/04/16 08:03:03;;;;;;;1.30;0.70;;;6.30;99.90;;;;;;5387903;26;20462;-78
2024/04/16 08:05:29;;;;;;;1.40;0.70;;;6.30;99.90;;;;;;5406540;26;20018;-79
2024/04/16 08:07:54;;;;;;;1.48;0.70;;;6.30;99.90;;;;;;5391790;26;20005;-80
2024/04/16 08:10:20;;;;;;;0.98;0.60;;;6.20;99.90;;;;;;5392134;26;20008;-79
2024/04/16 08:12:46;;;;;;;1.65;0.90;;;6.20;99.90;;;;;;5390770;26;20008;-81
2024/04/16 08:15:11;;;;;;;1.90;0.60;;;6.20;99.90;;;;;;5389632;26;20008;-80
2024/04/16 08:17:37;;;;;;;2.28;0.80;;;6.10;99.90;;;;;;5381890;26;20018;-79
2024/04/16 08:20:03;;;;;;;4.20;1.00;;;6.10;99.90;;;;;;5397363;26;20077;-80
2024/04/16 08:22:28;;;;;;;3.25;0.82;;;6.10;99.90;;;;;;5398764;26;20008;-80
2024/04/16 08:24:54;;;;;;;1.75;0.80;;;6.20;99.90;;;;;;5398066;26;20043;-80
2024/04/16 08:27:22;;;;;;;1.85;0.77;;;6.20;99.90;;;;;;5410433;26;20008;-79
2024/04/16 08:29:49;;;;;;;2.95;1.10;;;6.30;99.90;;;;;;5376810;26;20344;-81
2024/04/16 08:32:15;;;;;;;2.67;1.10;;;6.30;99.90;;;;;;5387062;26;20111;-81
2024/04/16 08:34:41;;;;;;;3.40;1.20;;;6.30;99.90;;;;;;5376888;26;20016;-80
2024/04/16 08:37:07;;;;;;;2.50;1.10;;;6.40;99.90;;;;;;5387713;26;20004;-80
2024/04/16 08:39:33;;;;;;;1.60;0.90;;;6.50;99.90;;;;;;5399826;26;20031;-79
2024/04/16 08:42:00;;;;;;;3.65;0.90;;;6.50;99.90;;;;;;5390188;26;20470;-81
2024/04/16 08:44:27;;;;;;;1.80;0.93;;;6.60;99.90;;;;;;5385571;26;20347;-80
2024/04/16 08:46:55;;;;;;;1.67;0.80;;;6.60;99.90;;;;;;5398736;26;20769;-80
2024/04/16 08:49:23;;;;;;;2.08;0.90;;;6.70;99.90;;;;;;5399645;26;20027;-82
2024/04/16 08:51:52;;;;;;;2.28;0.95;;;6.80;99.90;;;;;;5392211;26;20016;-80
2024/04/16 08:54:20;;;;;;;1.90;1.00;;;6.80;99.90;;;;;;5395286;26;20016;-82
2024/04/16 08:56:48;;;;;;;1.77;0.98;;;6.80;99.90;;;;;;5379289;26;20012;-82
2024/04/16 08:59:13;;;;;;;2.50;1.10;;;6.80;99.90;;;;;;5409595;26;20035;-81
2024/04/16 09:01:40;;;;;;;2.95;1.10;;;6.80;99.90;;;;;;5403067;26;20008;-81
2024/04/16 09:04:07;;;;;;;2.40;1.00;;;6.80;99.90;;;;;;5392493;26;20041;-81
2024/04/16 09:06:33;;;;;;;2.13;1.10;;;6.90;99.90;;;;;;5397478;26;20004;-80
2024/04/16 09:09:03;;;;;;;1.98;1.10;;;7.00;99.90;;;;;;5404854;26;20018;-81
2024/04/16 09:11:28;;;;;;;2.08;0.98;;;7.00;99.90;;;;;;5389920;26;20019;-82
2024/04/16 09:13:57;;;;;;;1.90;1.10;;;7.00;99.90;;;;;;5415291;26;20004;-83
2024/04/16 09:16:25;;;;;;;2.13;1.02;;;7.10;99.90;;;;;;5388452;26;20012;-81
2024/04/16 09:18:52;;;;;;;2.05;0.95;;;7.20;99.90;;;;;;5423501;26;20063;-80
2024/04/16 09:21:18;;;;;;;1.92;0.73;;;7.30;99.90;;;;;;5437557;26;20358;-83
2024/04/16 09:23:54;;;;;;;2.20;0.90;;;7.40;99.90;;;;;;5387997;26;20003;-82
2024/04/16 09:26:20;;;;;;;1.27;0.68;;;7.60;99.90;;;;;;5400051;26;20339;-81
2024/04/16 09:28:50;;;;;;;4.63;0.80;;;7.90;99.90;;;;;;5394454;26;20004;-81
2024/04/16 09:31:16;;;;;;;2.22;0.70;;;8.00;99.90;;;;;;5383377;26;20355;-81
2024/04/16 09:33:42;;;;;;;1.35;0.60;;;8.10;99.90;;;;;;5398159;26;20015;-83
2024/04/16 09:36:13;;;;;;;2.40;0.63;;;8.10;99.90;;;;;;5394662;26;20056;-81
2024/04/16 09:38:43;;;;;;;0.90;0.55;;;8.20;99.90;;;;;;5396062;26;20007;-78
2024/04/16 09:41:13;;;;;;;2.03;0.60;;;8.40;99.90;;;;;;5382012;26;20019;-81
2024/04/16 09:43:40;;;;;;;1.85;0.70;;;8.40;99.90;;;;;;5411471;26;20015;-79
2024/04/16 09:46:13;;;;;;;1.45;0.75;;;8.40;99.90;;;;;;5400555;26;20022;-81
2024/04/16 09:48:40;;;;;;;0.68;0.55;;;8.30;99.90;;;;;;5399532;26;20021;-83
2024/04/16 09:51:07;;;;;;;1.42;0.70;;;8.30;99.90;;;;;;5397534;26;20052;-80
2024/04/16 09:53:36;;;;;;;1.02;0.52;;;8.30;99.90;;;;;;5399918;26;20012;-81
2024/04/16 09:56:04;;;;;;;2.00;0.60;;;8.30;99.90;;;;;;5394203;26;20008;-82
2024/04/16 09:58:33;;;;;;;0.47;0.45;;;8.30;99.90;;;;;;5405241;26;20094;-81
2024/04/16 10:00:59;;;;;;;1.00;0.50;;;8.30;99.90;;;;;;5380322;26;20009;-82
2024/04/16 10:03:27;;;;;;;1.08;0.60;;;8.30;99.90;;;;;;5397205;26;20031;-82
2024/04/16 10:05:54;;;;;;;1.13;0.60;;;8.40;99.90;;;;;;5380274;26;20016;-83
2024/04/16 10:08:28;;;;;;;0.73;0.50;;;8.50;99.90;;;;;;5395427;26;20008;-79
2024/04/16 10:10:55;;;;;;;;;;;8.50;99.90;;;;;;5381152;26;20050;-81
2024/04/16 10:13:21;;;;;;;1.73;0.65;;;8.50;99.90;;;;;;5385147;26;19925;-80
2024/04/16 10:15:48;;;;;;;1.20;0.50;;;8.60;99.90;;;;;;5401071;26;20004;-80
2024/04/16 10:18:14;;;;;;;1.30;0.50;;;8.60;99.90;;;;;;5412749;26;20430;-82
2024/04/16 10:20:50;;;;;;;2.50;0.75;;;8.80;99.90;;;;;;5399516;26;20020;-83
2024/04/16 10:23:17;;;;;;;1.20;0.60;;;9.50;99.90;;;;;;5392174;26;20008;-80
2024/04/16 10:25:53;;;;;;;2.60;0.75;;;8.90;99.90;;;;;;5390590;26;20008;-81
2024/04/16 10:28:31;;;;;;;1.50;0.57;;;9.00;99.90;;;;;;5395754;26;20007;-80
2024/04/16 10:31:05;;;;;;;1.60;0.63;;;9.10;99.90;;;;;;5383215;26;20005;-84
2024/04/16 10:33:42;;;;;;;0.60;0.32;;;9.20;99.90;;;;;;5383228;26;20081;-85
2024/04/16 10:36:12;;;;;;;1.13;0.57;;;9.10;99.90;;;;;;5418616;26;20018;-81
2024/04/16 10:38:38;;;;;;;0.77;0.57;;;9.10;99.90;;;;;;5401980;26;20004;-81
2024/04/16 10:41:04;;;;;;;1.17;0.50;;;9.10;99.90;;;;;;5398035;26;20007;-80
2024/04/16 10:43:37;;;;;;;3.20;0.50;;;9.20;99.90;;;;;;5395238;26;20086;-80
2024/04/16 10:46:06;;;;;;;1.45;0.60;;;9.70;99.90;;;;;;5391563;26;20053;-80
2024/04/16 10:48:32;;;;;;;3.60;0.63;;;9.50;99.90;;;;;;5405556;26;20007;-83
2024/04/16 10:50:58;;;;;;;1.10;0.40;;;9.60;99.90;;;;;;5389533;26;20073;-80
2024/04/16 10:53:24;;;;;;;1.77;0.40;;;9.70;99.90;;;;;;5392887;26;20016;-81
2024/04/16 10:55:50;;;;;;;1.58;0.77;;;9.70;99.90;;;;;;5400587;26;20008;-79
2024/04/16 10:58:18;;;;;;;1.15;0.50;;;9.70;99.90;;;;;;5387797;26;20024;-81
2024/04/16 11:00:44;;;;;;;1.65;0.50;;;9.80;99.90;;;;;;5408087;26;20022;-79
2024/04/16 11:03:11;;;;;;;1.05;0.52;;;9.90;99.90;;;;;;5394041;26;20022;-79
2024/04/16 11:05:38;;;;;;;1.10;0.50;;;9.90;99.90;;;;;;5394844;26;20166;-81
2024/04/16 11:08:07;;;;;;;0.88;0.40;;;10.00;99.90;;;;;;5397327;26;20649;-82
2024/04/16 11:10:36;;;;;;;1.55;0.40;;;9.90;99.90;;;;;;5396256;26;20019;-81
2024/04/16 11:13:02;;;;;;;0.90;0.40;;;10.00;99.90;;;;;;5391199;26;20007;-81
2024/04/16 11:15:33;;;;;;;0.75;0.40;;;9.90;99.90;;;;;;5387640;26;20363;-82
2024/04/16 11:17:59;;;;;;;1.25;0.50;;;10.00;99.90;;;;;;5402268;26;20073;-80
2024/04/16 11:20:26;;;;;;;1.13;0.50;;;10.00;99.90;;;;;;5400221;26;20008;-79
2024/04/16 11:22:52;;;;;;;0.85;0.40;;;10.10;99.90;;;;;;5401606;26;20007;-82
2024/04/16 11:25:17;;;;;;;1.17;0.35;;;10.10;99.90;;;;;;5399510;26;20004;-81
2024/04/16 11:27:44;;;;;;;0.93;0.50;;;10.10;99.90;;;;;;5382353;26;20008;-81
2024/04/16 11:30:11;;;;;;;3.95;0.60;;;10.20;99.90;;;;;;5379785;26;20433;-80
2024/04/16 11:32:38;;;;;;;0.95;0.60;;;10.20;99.90;;;;;;5394509;26;20032;-82
2024/04/16 11:35:10;;;;;;;1.60;0.40;;;10.20;99.90;;;;;;5388089;26;20366;-82
2024/04/16 11:37:40;;;;;;;1.65;0.55;;;10.10;99.90;;;;;;5391963;26;20000;-80
2024/04/16 11:40:06;;;;;;;1.13;0.40;;;10.10;99.90;;;;;;5435534;26;20393;-79
2024/04/16 11:42:32;;;;;;;2.97;0.75;;;9.80;99.90;;;;;;5383461;26;20019;-82
2024/04/16 11:44:59;;;;;;;0.88;0.40;;;9.90;99.90;;;;;;5398135;26;20003;-82
2024/04/16 11:47:25;;;;;;;0.90;0.40;;;10.00;99.90;;;;;;5415932;26;20351;-82
2024/04/16 11:49:51;;;;;;;0.70;0.40;;;10.00;99.90;;;;;;5387569;26;20023;-81
2024/04/16 11:52:17;;;;;;;1.58;0.40;;;10.10;99.90;;;;;;5400420;26;20007;-81
2024/04/16 11:54:44;;;;;;;1.42;0.55;;;10.10;99.90;;;;;;5415909;26;20036;-81
2024/04/16 11:57:10;;;;;;;2.10;0.50;;;10.10;99.90;;;;;;5389859;26;20016;-81
2024/04/16 11:59:36;;;;;;;0.95;0.50;;;10.10;99.90;;;;;;5379089;26;20023;-81
2024/04/16 12:02:02;;;;;;;1.63;0.50;;;10.20;99.90;;;;;;5380300;26;20027;-81
2024/04/16 12:04:28;;;;;;;1.50;0.52;;;10.10;99.90;;;;;;5392462;26;20638;-81
2024/04/16 12:06:54;;;;;;;0.60;0.50;;;10.00;99.90;;;;;;5377686;26;20038;-80
2024/04/16 12:09:20;;;;;;;1.35;0.57;;;10.00;99.90;;;;;;5392089;26;20008;-81
2024/04/16 12:11:46;;;;;;;1.60;0.57;;;10.00;99.90;;;;;;5392033;26;20418;-78
2024/04/16 12:14:12;;;;;;;2.78;1.30;;;10.00;99.90;;;;;;5386897;26;20020;-82
2024/04/16 12:16:38;;;;;;;0.90;0.50;;;10.00;99.90;;;;;;5380104;26;20374;-82
2024/04/16 12:19:04;;;;;;;1.52;0.60;;;9.90;99.90;;;;;;5401960;26;20016;-81
2024/04/16 12:21:31;;;;;;;2.50;0.80;;;9.80;99.90;;;;;;5389956;26;20008;-80
2024/04/16 12:23:56;;;;;;;4.18;0.88;;;9.90;99.90;;;;;;5386540;26;20502;-82
2024/04/16 12:26:22;;;;;;;1.30;0.57;;;9.90;99.90;;;;;;5384107;26;20008;-80
2024/04/16 12:28:49;;;;;;;1.70;0.68;;;9.90;99.90;;;;;;5384304;26;20008;-81
2024/04/16 12:31:16;;;;;;;3.15;1.08;;;9.90;99.90;;;;;;5399923;26;20018;-81
2024/04/16 12:33:43;;;;;;;2.35;1.00;;;9.90;99.90;;;;;;5391952;26;20491;-81
2024/04/16 12:36:09;;;;;;;2.72;1.25;;;9.80;99.90;;;;;;5380051;26;20479;-81
2024/04/16 12:38:36;;;;;;;3.08;1.48;;;9.80;99.90;;;;;;5394534;26;20007;-80
2024/04/16 12:41:01;;;;;;;3.63;1.52;;;9.70;99.90;;;;;;5389687;26;20039;-82
2024/04/16 12:43:28;;;;;;;4.40;2.17;;;10.10;99.90;;;;;;5395600;26;20008;-79
2024/04/16 12:45:58;;;;;;;5.32;2.30;;;9.70;99.90;;;;;;5394130;26;20522;-81
2024/04/16 12:48:26;;;;;;;5.20;2.70;;;9.80;99.90;;;;;;5395772;26;20082;-81
2024/04/16 12:50:52;;;;;;;8.38;2.78;;;9.90;99.90;;;;;;5396023;26;20008;-81
2024/04/16 12:53:18;;;;;;;6.50;2.60;;;10.00;99.90;;;;;;5383155;26;20019;-79